createdAt,value
2017-06-24T05:03:11.701Z,25.6
2017-06-24T05:04:20.171Z,25.6
2017-06-24T05:05:27.884Z,25.6
2017-06-24T05:06:35.974Z,25.6
2017-06-24T05:07:44.502Z,25.6
2017-06-24T05:08:52.161Z,25.6
2017-06-24T05:10:00.252Z,25.6
2017-06-24T05:11:08.341Z,25.6
2017-06-24T05:12:16.432Z,25.6
2017-06-24T05:13:24.523Z,25.6
2017-06-24T05:14:32.614Z,25.6
2017-06-24T05:15:40.712Z,25.5
2017-06-24T05:16:48.800Z,25.6
2017-06-24T05:17:56.915Z,25.6
2017-06-24T05:19:04.981Z,25.5
2017-06-24T05:20:13.070Z,25.6
2017-06-24T05:21:21.166Z,25.6
2017-06-24T05:22:29.369Z,25.6
2017-06-24T05:23:37.346Z,25.6
2017-06-24T05:24:45.515Z,25.6
2017-06-24T05:25:53.618Z,25.6
2017-06-24T05:27:01.617Z,25.6
2017-06-24T05:28:09.706Z,25.5
2017-06-24T05:29:17.796Z,25.6
2017-06-24T05:30:25.886Z,25.5
2017-06-24T05:31:34.061Z,25.6
2017-06-24T05:32:42.064Z,25.6
2017-06-24T05:33:50.207Z,25.6
2017-06-24T05:34:58.350Z,25.5
2017-06-24T05:36:06.423Z,25.6
2017-06-24T05:37:14.548Z,25.6
2017-06-24T05:38:22.514Z,25.6
2017-06-24T05:39:30.606Z,25.6
2017-06-24T05:40:38.695Z,25.6
2017-06-24T05:41:46.785Z,25.6
2017-06-24T05:42:55.118Z,25.6
2017-06-24T05:44:03.031Z,25.6
2017-06-24T05:45:11.180Z,25.6
2017-06-24T05:46:19.170Z,25.5
2017-06-24T05:47:27.310Z,25.6
2017-06-24T05:48:35.436Z,25.6
2017-06-24T05:49:43.413Z,25.6
2017-06-24T05:50:51.503Z,25.6
2017-06-24T05:51:59.708Z,25.6
2017-06-24T05:53:07.705Z,25.5
2017-06-24T05:54:16.086Z,25.5
2017-06-24T05:55:24.518Z,25.5
2017-06-24T05:56:31.952Z,25.5
2017-06-24T05:57:40.042Z,25.5
2017-06-24T05:58:48.131Z,25.6
2017-06-24T05:59:56.310Z,25.4
2017-06-24T06:01:04.401Z,25.4
2017-06-24T06:02:12.401Z,25.5
2017-06-24T06:03:20.578Z,25.5
2017-06-24T06:04:28.578Z,25.5
2017-06-24T06:05:36.734Z,25.4
2017-06-24T06:06:44.844Z,25.5
2017-06-24T06:07:52.933Z,25.5
2017-06-24T06:09:00.974Z,25.5
2017-06-24T06:10:09.030Z,25.4
2017-06-24T06:11:17.121Z,25.5
2017-06-24T06:12:25.487Z,25.5
2017-06-24T06:13:33.381Z,25.5
2017-06-24T06:14:41.388Z,25.4
2017-06-24T06:15:49.604Z,25.5
2017-06-24T06:16:57.570Z,25.5
2017-06-24T06:18:05.722Z,25.5
2017-06-24T06:19:13.799Z,25.5
2017-06-24T06:20:21.913Z,25.4
2017-06-24T06:21:29.930Z,25.4
2017-06-24T06:22:38.019Z,25.4
2017-06-24T06:23:46.168Z,25.5
2017-06-24T06:24:54.250Z,25.4
2017-06-24T06:26:02.427Z,25.4
2017-06-24T06:27:10.412Z,25.4
2017-06-24T06:28:18.468Z,25.4
2017-06-24T06:29:26.596Z,25.4
2017-06-24T06:30:34.696Z,25.4
2017-06-24T06:31:42.949Z,25.5
2017-06-24T06:32:51.029Z,25.4
2017-06-24T06:33:58.923Z,25.4
2017-06-24T06:35:07.005Z,25.4
2017-06-24T06:36:15.125Z,25.4
2017-06-24T06:37:23.186Z,25.4
2017-06-24T06:38:31.275Z,25.5
2017-06-24T06:39:39.424Z,25.4
2017-06-24T06:40:47.629Z,25.4
2017-06-24T06:41:55.795Z,25.4
2017-06-24T06:43:03.709Z,25.4
2017-06-24T06:44:11.722Z,25.4
2017-06-24T06:45:19.841Z,25.4
2017-06-24T06:46:27.990Z,25.4
2017-06-24T06:47:36.072Z,25.4
2017-06-24T06:48:44.182Z,25.4
2017-06-24T06:49:52.182Z,25.4
2017-06-24T06:51:00.334Z,25.4
2017-06-24T06:52:08.485Z,25.4
2017-06-24T10:35:42.008Z,25.2
2017-06-24T10:36:50.100Z,25.1
2017-06-24T10:37:58.247Z,25.2
2017-06-24T10:39:06.277Z,25.2
2017-06-24T10:40:14.366Z,25.2
2017-06-24T10:41:22.457Z,25.1
2017-06-24T10:42:30.548Z,25.2
2017-06-24T10:43:38.636Z,25.1
2017-06-24T10:44:46.727Z,25.1
2017-06-24T10:45:54.817Z,25.1
2017-06-24T10:47:02.905Z,25.1
2017-06-24T10:48:10.995Z,25.1
2017-06-24T10:49:19.081Z,25.1
2017-06-24T10:50:27.171Z,25.1
2017-06-24T10:51:35.261Z,25.2
2017-06-24T10:52:43.353Z,25.1
2017-06-24T10:53:51.442Z,25.2
2017-06-24T10:54:59.555Z,25.2
2017-06-24T10:56:07.619Z,25.2
2017-06-24T10:57:15.710Z,25.2
2017-06-24T10:58:23.801Z,25.1
2017-06-24T10:59:31.887Z,25.1
2017-06-24T11:00:40.004Z,25.1
2017-06-24T11:01:48.067Z,25.1
2017-06-24T11:02:56.163Z,25.1
2017-06-24T11:04:04.245Z,25.1
2017-06-24T11:05:12.335Z,25.1
2017-06-24T11:06:20.425Z,25.1
2017-06-24T11:07:28.514Z,25.1
2017-06-24T11:08:36.603Z,25.1
2017-06-24T11:09:44.692Z,25.1
2017-06-24T11:10:52.779Z,25.1
2017-06-24T11:12:00.893Z,25.1
2017-06-24T11:13:08.957Z,25.1
2017-06-24T11:14:17.048Z,25.1
2017-06-24T11:15:25.144Z,25.1
2017-06-24T11:16:33.231Z,25.1
2017-06-24T11:17:41.321Z,25.1
2017-06-24T11:18:49.444Z,25.1
2017-06-24T11:19:57.588Z,25.1
2017-06-24T11:21:05.587Z,25.1
2017-06-24T11:22:13.680Z,25.1
2017-06-24T11:23:21.771Z,25.1
2017-06-24T11:24:29.859Z,25.1
2017-06-24T11:25:37.948Z,25.1
2017-06-24T11:26:46.038Z,25.1
2017-06-24T11:27:54.126Z,25.1
2017-06-24T11:29:02.213Z,25.1
2017-06-24T11:30:10.304Z,25.2
2017-06-24T11:31:18.404Z,25.1
2017-06-24T11:32:26.484Z,25.2
2017-06-24T11:33:34.573Z,25.1
2017-06-24T11:34:42.663Z,25.1
2017-06-24T11:35:50.757Z,25.1
2017-06-24T11:36:58.847Z,25.1
2017-06-24T11:38:06.935Z,25.1
2017-06-24T11:39:15.028Z,25.1
2017-06-24T11:40:23.117Z,25.2
2017-06-24T11:41:31.205Z,25.1
2017-06-24T11:42:39.294Z,25.2
2017-06-24T11:43:47.382Z,25.2
2017-06-24T11:44:55.474Z,25.2
2017-06-24T11:46:03.563Z,25.1
2017-06-24T11:47:11.651Z,25.2
2017-06-24T11:48:19.740Z,25.1
2017-06-24T11:49:27.829Z,25.2
2017-06-24T11:50:35.920Z,25.1
2017-06-24T11:51:44.008Z,25.1
2017-06-24T11:52:52.103Z,25.1
2017-06-24T11:54:00.190Z,25.2
2017-06-24T11:55:08.279Z,25.2
2017-06-24T11:56:16.367Z,25.2
2017-06-24T11:57:24.456Z,25.2
2017-06-24T11:58:32.545Z,25.2
2017-06-24T11:59:40.636Z,25.2
2017-06-24T12:00:48.725Z,25.3
2017-06-24T12:01:56.815Z,25.3
2017-06-24T12:03:04.930Z,25.4
2017-06-24T12:04:12.995Z,25.2
2017-06-24T12:05:21.087Z,25.3
2017-06-24T12:06:29.175Z,25.3
2017-06-24T12:07:37.264Z,25.3
2017-06-24T12:08:45.353Z,25.4
2017-06-24T12:09:53.442Z,25.3
2017-06-24T12:11:01.534Z,25.3
2017-06-24T12:12:09.622Z,25.2
2017-06-24T12:13:18.282Z,25.3
2017-06-24T12:14:26.316Z,25.1
2017-06-24T12:15:34.410Z,25.2
2017-06-24T12:16:41.982Z,25.2
2017-06-24T12:17:50.071Z,25.3
2017-06-24T12:18:58.160Z,25.2
2017-06-24T12:20:06.275Z,25.1
2017-06-24T12:21:14.342Z,25.2
2017-06-24T12:22:22.430Z,25.2
2017-06-24T12:23:30.520Z,25.2
2017-06-24T12:24:38.609Z,25.2
2017-06-24T12:25:46.695Z,25.2
2017-06-24T12:26:54.794Z,25.2
2017-06-24T12:28:02.885Z,25.2
2017-06-24T12:29:10.976Z,25.3
2017-06-24T12:30:19.065Z,25.2
2017-06-24T12:31:27.153Z,25.2
2017-06-24T12:32:35.245Z,25.2
2017-06-24T12:33:43.334Z,25.3
2017-06-24T12:34:51.422Z,25.2
2017-06-24T12:35:59.513Z,25.3
2017-06-24T12:37:07.620Z,25.2
2017-06-24T12:38:15.692Z,25.2
2017-06-24T12:39:23.781Z,25.2
2017-06-24T12:40:31.872Z,25.2
2017-06-24T12:41:39.961Z,25.2
2017-06-24T12:42:48.052Z,25.3
2017-06-24T12:43:56.147Z,25.3
2017-06-24T12:45:04.228Z,25.2
2017-06-24T12:46:12.581Z,25.3
2017-06-24T12:47:20.409Z,25.3
2017-06-24T12:48:28.498Z,25.2
2017-06-24T12:49:36.587Z,25.3
2017-06-24T12:50:44.678Z,25.2
2017-06-24T12:51:52.766Z,25.3
2017-06-24T12:53:00.856Z,25.2
2017-06-24T12:54:08.973Z,25.2
2017-06-24T12:55:17.034Z,25.4
2017-06-24T12:56:25.141Z,25.3
2017-06-24T12:57:33.267Z,25.3
2017-06-24T12:58:41.311Z,25.3
2017-06-24T12:59:49.406Z,25.3
2017-06-24T13:00:57.489Z,25.2
2017-06-24T13:02:05.579Z,25.3
2017-06-24T13:03:13.668Z,25.2
2017-06-24T13:04:21.755Z,25.3
2017-06-24T13:05:29.845Z,25.3
2017-06-24T13:06:37.937Z,25.3
2017-06-24T13:07:46.027Z,25.3
2017-06-24T13:08:54.119Z,25.3
2017-06-24T13:10:02.208Z,25.4
2017-06-24T13:11:10.299Z,25.3
2017-06-24T13:12:18.386Z,25.4
2017-06-24T13:13:26.486Z,25.4
2017-06-24T13:14:34.578Z,25.4
2017-06-24T13:15:42.667Z,25.3
2017-06-24T13:16:50.757Z,25.4
2017-06-24T13:17:58.847Z,25.4
2017-06-24T13:19:06.937Z,25.3
2017-06-24T13:20:15.025Z,25.3
2017-06-24T13:21:23.124Z,25.3
2017-06-24T13:22:31.216Z,25.4
2017-06-24T13:23:39.626Z,25.4
2017-06-24T13:24:47.397Z,25.4
2017-06-24T13:25:55.488Z,25.4
2017-06-24T13:27:03.576Z,25.4
2017-06-24T13:28:11.665Z,25.4
2017-06-24T13:29:19.751Z,25.4
2017-06-24T13:30:27.844Z,25.5
2017-06-24T13:31:36.267Z,25.4
2017-06-24T13:32:44.024Z,25.4
2017-06-24T13:33:52.117Z,25.4
2017-06-24T13:35:00.204Z,25.5
2017-06-24T13:36:08.297Z,25.4
2017-06-24T13:37:16.382Z,25.5
2017-06-24T13:38:25.016Z,25.5
2017-06-24T13:39:32.571Z,25.5
2017-06-24T13:40:40.661Z,25.6
2017-06-24T13:41:48.753Z,25.5
2017-06-24T13:42:56.846Z,25.5
2017-06-24T13:44:04.932Z,25.5
2017-06-24T13:45:13.046Z,25.6
2017-06-24T13:46:21.111Z,25.5
2017-06-24T13:47:29.201Z,25.6
2017-06-24T13:48:37.301Z,25.6
2017-06-24T13:49:45.391Z,25.6
2017-06-24T13:50:53.482Z,25.6
2017-06-24T13:52:01.574Z,25.6
2017-06-24T13:53:09.662Z,25.6
2017-06-24T13:54:17.753Z,25.6
2017-06-24T13:55:25.842Z,25.6
2017-06-24T13:56:33.932Z,25.6
2017-06-24T13:57:42.064Z,25.6
2017-06-24T13:58:50.114Z,25.6
2017-06-24T13:59:58.204Z,25.6
2017-06-24T14:01:06.293Z,25.6
2017-06-24T14:02:14.390Z,25.6
2017-06-24T14:03:22.474Z,25.6
2017-06-24T14:04:30.564Z,25.6
2017-06-24T14:05:38.662Z,25.7
2017-06-24T14:06:46.745Z,25.7
2017-06-24T14:07:54.835Z,25.7
2017-06-24T14:09:02.924Z,25.7
2017-06-24T14:10:11.014Z,25.8
2017-06-24T14:11:19.106Z,25.7
2017-06-24T14:12:27.198Z,25.7
2017-06-24T14:13:35.286Z,25.7
2017-06-24T14:14:43.375Z,25.7
2017-06-24T14:15:51.467Z,25.7
2017-06-24T14:16:59.558Z,25.7
2017-06-24T14:18:07.650Z,25.7
2017-06-24T14:19:15.737Z,25.7
2017-06-24T14:20:23.830Z,25.8
2017-06-24T14:21:31.918Z,25.7
2017-06-24T14:22:40.010Z,25.8
2017-06-24T14:23:48.099Z,25.7
2017-06-24T14:24:56.191Z,25.7
2017-06-24T14:26:04.279Z,25.8
2017-06-24T14:27:12.373Z,25.7
2017-06-24T14:28:20.460Z,25.8
2017-06-24T14:29:28.553Z,25.7
2017-06-24T14:30:36.650Z,25.7
2017-06-24T14:31:44.743Z,25.8
2017-06-24T14:32:52.831Z,25.8
2017-06-24T14:34:00.922Z,25.8
2017-06-24T14:35:09.021Z,25.9
2017-06-24T14:36:17.137Z,25.8
2017-06-24T14:37:25.204Z,25.8
2017-06-24T14:38:33.294Z,25.8
2017-06-24T14:39:41.394Z,25.9
2017-06-24T14:40:49.483Z,25.8
2017-06-24T14:41:57.573Z,25.9
2017-06-24T14:43:05.664Z,25.9
2017-06-24T14:44:13.754Z,25.8
2017-06-24T14:45:21.846Z,25.9
2017-06-24T14:46:29.933Z,25.9
2017-06-24T14:47:38.027Z,25.9
2017-06-24T14:48:46.114Z,25.9
2017-06-24T14:49:54.207Z,25.9
2017-06-24T14:51:02.302Z,25.9
2017-06-24T14:52:10.387Z,25.9
2017-06-24T14:53:18.478Z,25.9
2017-06-24T14:54:26.568Z,25.9
2017-06-24T14:55:34.659Z,26.0
2017-06-24T14:56:42.748Z,25.9
2017-06-24T14:57:50.839Z,25.9
2017-06-24T14:58:58.929Z,25.9
2017-06-24T15:00:07.019Z,25.9
2017-06-24T15:01:15.112Z,25.9
2017-06-24T15:02:23.198Z,25.9
2017-06-24T15:03:31.291Z,25.9
2017-06-24T15:04:39.381Z,25.9
2017-06-24T15:05:47.473Z,26.0
2017-06-24T15:06:55.562Z,25.9
2017-06-24T15:08:03.652Z,25.9
2017-06-24T15:09:11.742Z,25.9
2017-06-24T15:10:19.857Z,25.9
2017-06-24T15:11:27.925Z,25.9
2017-06-24T15:12:36.014Z,25.9
2017-06-24T15:13:44.104Z,25.9
2017-06-24T15:14:52.195Z,25.9
2017-06-24T15:16:00.287Z,25.9
2017-06-24T15:17:08.376Z,25.9
2017-06-24T15:18:16.471Z,25.9
2017-06-24T15:19:24.564Z,25.9
2017-06-24T15:20:32.651Z,25.9
2017-06-24T15:21:40.745Z,26.0
2017-06-24T15:22:48.834Z,26.0
2017-06-24T15:23:56.929Z,26.0
2017-06-24T15:25:05.015Z,25.9
2017-06-24T15:26:13.104Z,25.9
2017-06-24T15:27:21.197Z,25.9
2017-06-24T15:28:29.285Z,26.0
2017-06-24T15:29:37.377Z,25.9
2017-06-24T15:30:45.468Z,26.0
2017-06-24T15:31:53.558Z,26.0
2017-06-24T15:33:01.650Z,26.0
2017-06-24T15:34:09.739Z,25.9
2017-06-24T15:35:17.830Z,25.9
2017-06-24T15:36:25.918Z,25.9
2017-06-24T15:37:34.012Z,25.9
2017-06-24T15:38:42.099Z,26.0
2017-06-24T15:39:50.190Z,25.9
2017-06-24T15:40:58.279Z,25.9
2017-06-24T15:42:06.371Z,26.0
2017-06-24T15:43:14.461Z,26.0
2017-06-24T15:44:22.553Z,26.0
2017-06-24T15:45:30.642Z,26.0
2017-06-24T15:46:38.730Z,25.9
2017-06-24T15:47:46.821Z,25.9
2017-06-24T15:48:54.913Z,25.9
2017-06-24T15:50:03.002Z,26.0
2017-06-24T15:51:11.095Z,26.0
2017-06-24T15:52:19.185Z,26.0
2017-06-24T15:53:27.275Z,26.0
2017-06-24T15:54:35.366Z,25.9
2017-06-24T15:55:43.456Z,26.0
2017-06-24T15:56:51.544Z,25.9
2017-06-24T15:57:59.635Z,25.9
2017-06-24T15:59:07.726Z,26.0
2017-06-24T16:00:15.818Z,26.0
2017-06-24T16:01:23.916Z,26.0
2017-06-24T16:02:32.007Z,25.9
2017-06-24T16:03:40.097Z,26.0
2017-06-24T16:04:48.189Z,25.9
2017-06-24T16:05:56.277Z,25.9
2017-06-24T16:07:04.367Z,25.9
2017-06-24T16:08:12.457Z,25.9
2017-06-24T16:09:20.550Z,25.8
2017-06-24T16:10:28.637Z,25.9
2017-06-24T16:11:36.729Z,25.9
2017-06-24T16:12:44.818Z,25.9
2017-06-24T16:13:52.907Z,25.8
2017-06-24T16:15:01.007Z,25.9
2017-06-24T16:16:09.087Z,25.8
2017-06-24T16:17:17.175Z,25.9
2017-06-24T16:18:25.266Z,25.8
2017-06-24T16:19:33.356Z,25.9
2017-06-24T16:20:41.447Z,25.9
2017-06-24T16:21:49.540Z,25.9
2017-06-24T16:22:57.629Z,25.9
2017-06-24T16:24:05.820Z,25.8
2017-06-24T16:25:13.805Z,25.9
2017-06-24T16:26:21.895Z,25.9
2017-06-24T16:27:29.986Z,25.9
2017-06-24T16:28:38.076Z,25.8
2017-06-24T16:29:46.166Z,25.9
2017-06-24T16:30:54.258Z,25.9
2017-06-24T16:32:02.443Z,25.9
2017-06-24T16:33:10.437Z,25.9
2017-06-24T16:34:18.525Z,25.8
2017-06-24T16:35:26.615Z,25.9
2017-06-24T16:36:34.705Z,25.9
2017-06-24T16:37:42.796Z,25.9
2017-06-24T16:38:50.887Z,25.9
2017-06-24T16:39:58.977Z,25.9
2017-06-24T16:41:07.068Z,25.8
2017-06-24T16:42:15.157Z,25.9
2017-06-24T16:43:23.248Z,25.9
2017-06-24T16:44:31.336Z,25.9
2017-06-24T16:45:39.426Z,25.9
2017-06-24T16:46:47.518Z,25.9
2017-06-24T16:47:55.610Z,25.8
2017-06-24T16:49:03.698Z,25.9
2017-06-24T16:50:11.789Z,25.9
2017-06-24T16:51:19.882Z,25.9
2017-06-24T16:52:27.969Z,25.9
2017-06-24T16:53:36.059Z,25.9
2017-06-24T16:54:44.149Z,25.9
2017-06-24T16:55:52.239Z,26.0
2017-06-24T16:57:00.331Z,25.8
2017-06-24T16:58:08.421Z,25.9
2017-06-24T16:59:16.512Z,26.0
2017-06-24T17:00:24.648Z,26.0
2017-06-24T17:01:32.692Z,25.9
2017-06-24T17:02:40.781Z,25.9
2017-06-24T17:03:48.871Z,25.9
2017-06-24T17:04:56.958Z,25.9
2017-06-24T17:06:05.051Z,25.9
2017-06-24T17:07:13.142Z,25.9
2017-06-24T17:08:21.232Z,25.9
2017-06-24T17:09:29.323Z,25.9
2017-06-24T17:10:37.422Z,25.9
2017-06-24T17:11:45.512Z,25.9
2017-06-24T17:12:53.600Z,25.9
2017-06-24T17:14:01.692Z,25.9
2017-06-24T17:15:09.782Z,26.0
2017-06-24T17:16:17.872Z,26.0
2017-06-24T17:17:26.006Z,26.0
2017-06-24T17:18:34.054Z,26.0
2017-06-24T17:19:42.144Z,25.9
2017-06-24T17:20:50.233Z,26.0
2017-06-24T17:21:58.322Z,26.0
2017-06-24T17:23:06.414Z,26.0
2017-06-24T17:24:14.503Z,26.0
2017-06-24T17:25:22.592Z,26.0
2017-06-24T17:26:30.685Z,26.0
2017-06-24T17:27:38.775Z,26.0
2017-06-24T17:28:46.867Z,26.0
2017-06-24T17:29:54.957Z,26.0
2017-06-24T17:31:03.046Z,26.0
2017-06-24T17:32:11.136Z,26.0
2017-06-24T17:33:19.227Z,25.9
2017-06-24T17:34:27.396Z,26.0
2017-06-24T17:35:35.407Z,25.9
2017-06-24T17:36:43.522Z,26.0
2017-06-24T17:37:51.586Z,26.1
2017-06-24T17:38:59.678Z,26.0
2017-06-24T17:40:07.771Z,26.0
2017-06-24T17:41:15.878Z,26.0
2017-06-24T17:42:23.951Z,26.0
2017-06-24T17:43:32.038Z,26.1
2017-06-24T17:44:40.131Z,26.0
2017-06-24T17:45:48.220Z,26.0
2017-06-24T17:46:56.312Z,26.1
2017-06-24T17:48:04.402Z,26.0
2017-06-24T17:49:12.519Z,26.0
2017-06-24T17:50:20.586Z,26.0
2017-06-24T17:51:28.706Z,26.0
2017-06-24T17:52:36.774Z,26.0
2017-06-24T17:53:44.863Z,26.0
2017-06-24T17:54:52.956Z,26.0
2017-06-24T17:56:01.045Z,26.0
2017-06-24T17:57:09.136Z,26.0
2017-06-24T17:58:17.225Z,26.0
2017-06-24T17:59:25.316Z,26.0
2017-06-24T18:00:33.406Z,26.0
2017-06-24T18:01:41.495Z,26.1
2017-06-24T18:02:49.586Z,26.1
2017-06-24T18:03:57.677Z,26.0
2017-06-24T18:05:05.767Z,26.0
2017-06-24T18:06:13.859Z,26.0
2017-06-24T18:07:21.948Z,26.0
2017-06-24T18:08:30.083Z,26.1
2017-06-24T18:09:38.129Z,26.0
2017-06-24T18:10:46.218Z,26.0
2017-06-24T18:11:54.308Z,26.0
2017-06-24T18:13:02.400Z,26.0
2017-06-24T18:14:10.492Z,26.0
2017-06-24T18:15:18.580Z,25.9
2017-06-24T18:16:26.672Z,26.0
2017-06-24T18:17:34.760Z,26.1
2017-06-24T18:18:42.854Z,26.0
2017-06-24T18:19:50.942Z,26.0
2017-06-24T18:20:59.029Z,26.1
2017-06-24T18:22:07.121Z,26.0
2017-06-24T18:23:15.213Z,26.0
2017-06-24T18:24:23.303Z,26.1
2017-06-24T18:25:31.459Z,26.1
2017-06-24T18:26:39.484Z,26.0
